createdAt,value
2023-01-21T00:03:53.268Z,88.73
2023-01-21T00:08:45.998Z,88.92
2023-01-21T00:13:38.776Z,88.61
2023-01-21T00:18:31.821Z,88.54
2023-01-21T00:23:24.545Z,88.64
2023-01-21T00:28:17.257Z,88.92
2023-01-21T00:33:09.922Z,88.61
2023-01-21T00:38:02.614Z,88.51
2023-01-21T00:42:55.303Z,88.28
2023-01-21T00:47:48.671Z,88.33
2023-01-21T00:52:41.519Z,88.51
2023-01-21T00:57:34.759Z,88.15
2023-01-21T01:02:27.606Z,88.01
2023-01-21T01:07:20.331Z,88.41
2023-01-21T01:12:13.055Z,88.26
2023-01-21T01:17:06.001Z,88.42
2023-01-21T01:21:58.709Z,88.88
2023-01-21T01:26:51.412Z,89.16
2023-01-21T01:31:44.725Z,89.74
2023-01-21T01:36:37.403Z,90.07
2023-01-21T01:41:30.882Z,90.10
2023-01-21T01:46:24.221Z,90.50
2023-01-21T01:51:19.958Z,90.68
2023-01-21T01:56:13.353Z,90.68
2023-01-21T02:01:06.125Z,90.85
2023-01-21T02:05:59.214Z,90.84
2023-01-21T02:10:54.056Z,90.95
2023-01-21T02:15:46.842Z,90.95
2023-01-21T02:21:07.724Z,90.98
2023-01-21T02:26:20.869Z,91.23
2023-01-21T02:31:34.781Z,91.03
2023-01-21T02:36:27.499Z,91.48
2023-01-21T02:41:20.148Z,91.54
2023-01-21T02:46:39.008Z,91.37
2023-01-21T02:51:31.699Z,91.47
2023-01-21T02:56:26.190Z,91.60
2023-01-21T03:01:35.001Z,91.82
2023-01-21T03:06:49.152Z,91.65
2023-01-21T03:11:45.568Z,92.06
2023-01-21T03:16:59.724Z,91.75
2023-01-21T03:21:53.301Z,91.83
2023-01-21T03:26:49.025Z,92.06
2023-01-21T03:31:43.885Z,92.35
2023-01-21T03:36:51.339Z,92.17
2023-01-21T03:41:44.093Z,92.04
2023-01-21T03:46:36.737Z,92.01
2023-01-21T03:51:37.412Z,92.10
2023-01-21T03:56:30.426Z,91.94
2023-01-21T04:01:23.282Z,92.45
2023-01-21T04:06:16.973Z,92.28
2023-01-21T04:11:09.677Z,92.12
2023-01-21T04:16:02.426Z,92.50
2023-01-21T04:20:55.137Z,92.56
2023-01-21T04:25:51.532Z,92.39
2023-01-21T04:30:44.292Z,92.60
2023-01-21T04:35:37.384Z,92.35
2023-01-21T04:40:30.358Z,92.75
2023-01-21T04:45:23.037Z,92.60
2023-01-21T04:50:16.601Z,92.57
2023-01-21T04:55:10.498Z,92.70
2023-01-21T05:00:05.536Z,92.72
2023-01-21T05:04:58.259Z,92.53
2023-01-21T05:09:51.019Z,92.74
2023-01-21T05:14:43.698Z,92.85
2023-01-21T05:19:36.383Z,92.73
2023-01-21T05:24:29.146Z,92.66
2023-01-21T05:29:22.484Z,92.54
2023-01-21T05:34:15.185Z,92.68
2023-01-21T05:39:07.872Z,92.71
2023-01-21T05:44:00.545Z,92.80
2023-01-21T05:48:53.262Z,92.72
2023-01-21T05:53:46.490Z,93.24
2023-01-21T05:58:39.249Z,92.77
2023-01-21T06:03:32.015Z,92.98
2023-01-21T06:08:24.748Z,92.92
2023-01-21T06:13:17.964Z,92.94
2023-01-21T06:18:10.894Z,92.97
2023-01-21T06:23:03.615Z,93.05
2023-01-21T06:27:56.762Z,93.33
2023-01-21T06:32:49.398Z,92.91
2023-01-21T06:37:42.101Z,93.17
2023-01-21T06:42:34.822Z,93.00
2023-01-21T06:47:27.503Z,93.10
2023-01-21T06:52:20.177Z,93.43
2023-01-21T06:57:13.044Z,93.36
2023-01-21T07:02:05.752Z,93.37
2023-01-21T07:06:58.449Z,93.53
2023-01-21T07:11:51.186Z,93.50
2023-01-21T07:16:43.952Z,93.39
2023-01-21T07:21:36.654Z,93.52
2023-01-21T07:26:29.843Z,93.55
2023-01-21T07:31:22.703Z,93.39
2023-01-21T07:36:15.543Z,93.23
2023-01-21T07:41:08.563Z,93.27
2023-01-21T07:46:01.472Z,93.18
2023-01-21T07:50:57.491Z,93.38
2023-01-21T07:55:50.181Z,93.02
2023-01-21T08:00:42.862Z,93.28
2023-01-21T08:05:35.677Z,92.91
2023-01-21T08:10:28.401Z,93.14
2023-01-21T08:15:21.142Z,92.99
2023-01-21T08:20:14.075Z,92.87
2023-01-21T08:25:07.505Z,92.89
2023-01-21T08:30:00.206Z,93.16
2023-01-21T08:34:52.943Z,92.88
2023-01-21T08:39:45.630Z,92.54
2023-01-21T08:44:38.341Z,92.57
2023-01-21T08:49:31.061Z,92.38
2023-01-21T08:54:24.209Z,92.49
2023-01-21T08:59:17.064Z,92.45
2023-01-21T09:04:11.065Z,92.61
2023-01-21T09:09:03.776Z,92.49
2023-01-21T09:13:58.053Z,92.57
2023-01-21T09:18:51.132Z,92.65
2023-01-21T09:23:44.558Z,92.70
2023-01-21T09:28:39.097Z,92.43
2023-01-21T09:33:32.584Z,92.82
2023-01-21T09:38:25.982Z,92.90
2023-01-21T09:43:25.311Z,92.75
2023-01-21T09:48:22.177Z,92.83
2023-01-21T09:53:33.664Z,92.96
2023-01-21T09:58:48.388Z,92.73
2023-01-21T10:04:00.590Z,92.60
2023-01-21T10:09:02.224Z,92.46
2023-01-21T10:14:04.253Z,92.27
2023-01-21T10:18:58.732Z,92.34
2023-01-21T10:23:53.515Z,92.53
2023-01-21T10:28:51.808Z,92.51
2023-01-21T10:33:44.512Z,92.77
2023-01-21T10:38:43.019Z,93.08
2023-01-21T10:43:47.810Z,92.92
2023-01-21T10:49:05.422Z,93.07
2023-01-21T10:54:01.867Z,92.88
2023-01-21T10:59:00.353Z,93.00
2023-01-21T11:03:58.329Z,93.33
2023-01-21T11:08:53.976Z,93.30
2023-01-21T11:13:46.715Z,93.52
2023-01-21T11:18:41.118Z,93.46
2023-01-21T11:23:35.490Z,93.57
2023-01-21T11:28:30.290Z,93.51
2023-01-21T11:33:22.971Z,93.76
2023-01-21T11:38:24.442Z,93.96
2023-01-21T11:43:33.843Z,94.04
2023-01-21T11:48:26.636Z,93.81
2023-01-21T11:53:20.168Z,93.98
2023-01-21T11:58:18.896Z,94.39
2023-01-21T12:03:16.909Z,94.32
2023-01-21T12:08:19.977Z,94.28
2023-01-21T12:13:18.892Z,94.31
2023-01-21T12:18:30.623Z,94.35
2023-01-21T12:23:41.527Z,94.17
2023-01-21T12:28:57.848Z,94.35
2023-01-21T12:34:03.405Z,94.40
2023-01-21T12:39:07.685Z,94.73
2023-01-21T12:44:18.913Z,94.48
2023-01-21T12:49:24.999Z,94.61
2023-01-21T12:54:36.579Z,94.56
2023-01-21T12:59:34.303Z,94.65
2023-01-21T13:04:36.317Z,94.60
2023-01-21T13:09:32.074Z,94.67
2023-01-21T13:14:42.295Z,94.53
2023-01-21T13:19:35.794Z,94.96
2023-01-21T13:24:47.008Z,94.80
2023-01-21T13:29:46.911Z,94.54
2023-01-21T13:35:07.713Z,94.81
2023-01-21T13:40:12.247Z,94.77
2023-01-21T13:45:11.235Z,95.03
2023-01-21T13:50:07.337Z,94.85
2023-01-21T13:55:09.326Z,95.06
2023-01-21T14:00:05.217Z,95.41
2023-01-21T14:05:07.044Z,95.24
2023-01-21T14:10:18.152Z,95.53
2023-01-21T14:15:20.422Z,95.21
2023-01-21T14:20:28.486Z,95.31
2023-01-21T14:25:40.052Z,95.54
2023-01-21T14:30:40.860Z,95.70
2023-01-21T14:35:52.099Z,95.55
2023-01-21T14:40:51.717Z,95.71
2023-01-21T14:45:50.720Z,95.81
2023-01-21T14:50:53.817Z,95.56
2023-01-21T14:55:46.904Z,95.74
2023-01-21T15:00:46.087Z,96.13
2023-01-21T15:05:38.961Z,95.89
2023-01-21T15:10:34.777Z,96.22
2023-01-21T15:15:27.534Z,95.94
2023-01-21T15:20:39.728Z,96.29
2023-01-21T15:25:34.443Z,96.16
2023-01-21T15:30:29.582Z,96.11
2023-01-21T15:35:32.777Z,96.15
2023-01-21T15:40:27.172Z,96.13
2023-01-21T15:45:24.960Z,96.11
2023-01-21T15:50:47.220Z,96.15
2023-01-21T15:55:50.465Z,96.36
2023-01-21T16:00:58.401Z,96.31
2023-01-21T16:06:08.938Z,96.57
2023-01-21T16:11:01.603Z,96.61
2023-01-21T16:16:14.847Z,96.58
2023-01-21T16:21:07.819Z,96.47
2023-01-21T16:26:00.512Z,96.47
2023-01-21T16:30:57.592Z,96.78
2023-01-21T16:35:51.708Z,96.66
2023-01-21T16:40:44.553Z,97.01
2023-01-21T16:45:37.665Z,96.65
2023-01-21T16:50:32.141Z,97.06
2023-01-21T16:55:26.777Z,96.65
2023-01-21T17:00:25.757Z,96.81
2023-01-21T17:05:18.806Z,96.68
2023-01-21T17:10:23.250Z,96.97
2023-01-21T17:15:38.519Z,96.76
2023-01-21T17:20:43.833Z,96.74
2023-01-21T17:25:37.763Z,96.89
2023-01-21T17:30:30.510Z,97.06
2023-01-21T17:35:24.007Z,96.85
2023-01-21T17:40:32.035Z,96.77
2023-01-21T17:45:30.649Z,96.92
2023-01-21T17:50:23.341Z,96.85
2023-01-21T17:55:27.321Z,97.02
2023-01-21T18:00:29.150Z,97.03
2023-01-21T18:05:22.070Z,96.97
2023-01-21T18:10:16.109Z,97.17
2023-01-21T18:15:10.369Z,97.08
2023-01-21T18:20:03.187Z,97.07
2023-01-21T18:24:56.368Z,97.02
2023-01-21T18:29:49.273Z,97.09
2023-01-21T18:34:42.102Z,96.92
2023-01-21T18:39:34.809Z,97.18
2023-01-21T18:44:27.525Z,97.17
2023-01-21T18:49:21.261Z,97.16
2023-01-21T18:54:18.167Z,97.14
2023-01-21T18:59:13.079Z,97.18
2023-01-21T19:04:09.632Z,97.09
2023-01-21T19:09:02.633Z,97.48
2023-01-21T19:13:55.364Z,97.20
2023-01-21T19:18:48.457Z,97.44
2023-01-21T19:23:41.301Z,97.30
2023-01-21T19:28:34.774Z,97.21
2023-01-21T19:33:27.777Z,97.47
2023-01-21T19:38:21.999Z,97.12
2023-01-21T19:43:15.821Z,97.00
2023-01-21T19:48:13.560Z,97.22
2023-01-21T19:53:06.534Z,97.39
2023-01-21T19:58:02.214Z,97.31
2023-01-21T20:02:55.219Z,97.25
2023-01-21T20:07:49.160Z,97.19
2023-01-21T20:12:43.947Z,97.23
2023-01-21T20:17:38.749Z,97.58
2023-01-21T20:22:31.471Z,97.06
2023-01-21T20:27:24.180Z,97.22
2023-01-21T20:32:16.860Z,97.37
2023-01-21T20:37:11.016Z,97.41
2023-01-21T20:42:03.700Z,97.04
2023-01-21T20:46:57.049Z,97.56
2023-01-21T20:51:49.717Z,97.37
2023-01-21T20:56:42.432Z,97.32
2023-01-21T21:01:39.434Z,97.27
2023-01-21T21:06:33.769Z,97.26
2023-01-21T21:11:28.983Z,97.34
2023-01-21T21:16:27.895Z,97.36
2023-01-21T21:21:23.696Z,97.28
2023-01-21T21:26:18.569Z,97.16
2023-01-21T21:31:13.526Z,97.37
2023-01-21T21:36:06.451Z,97.26
2023-01-21T21:41:19.133Z,97.35
2023-01-21T21:46:27.208Z,97.22
2023-01-21T21:51:21.741Z,97.35
2023-01-21T21:56:15.990Z,97.39
2023-01-21T22:01:08.765Z,97.35
2023-01-21T22:06:04.044Z,97.35
2023-01-21T22:10:57.805Z,97.32
2023-01-21T22:15:57.376Z,97.19
2023-01-21T22:20:51.976Z,97.14
2023-01-21T22:25:44.654Z,97.27
2023-01-21T22:30:37.415Z,97.41
2023-01-21T22:35:30.332Z,97.24
2023-01-21T22:40:23.093Z,97.17
2023-01-21T22:45:15.930Z,97.43
2023-01-21T22:50:09.522Z,97.11
2023-01-21T22:55:02.192Z,97.20
2023-01-21T22:59:54.872Z,97.08
2023-01-21T23:04:47.593Z,97.25
2023-01-21T23:09:40.333Z,96.98
2023-01-21T23:14:33.116Z,97.21
2023-01-21T23:19:26.671Z,97.24
2023-01-21T23:24:19.708Z,97.18
2023-01-21T23:29:12.391Z,97.13
2023-01-21T23:34:05.098Z,97.00
2023-01-21T23:38:57.751Z,97.19
2023-01-21T23:43:50.631Z,97.14
2023-01-21T23:48:43.655Z,97.02
2023-01-21T23:53:36.379Z,96.94
2023-01-21T23:58:29.050Z,97.18
